Weather at Eagle County Regional Airport

Public forecast

Using degrees Fahrenheit for public forecast. Weather courtesy of forecast.io.

Current aviation weather report (METAR) for Eagle County Regional Airport

Retrieved 2020/12/04 22:56 UTC (5 minutes ago):

KEGE 042256Z 00000KT 10SM CLR 06/M13 A3036 RMK AO2 SLP337 T00611133 PNO

Aviation forecast (TAF) for Eagle County Regional Airport

Retrieved 2020/12/04 18:22 UTC (5 hours ago):

TAF KEGE 041720Z 0418/0518 VRB03KT P6SM SKC